sensor_id;sensor_type;location;lat;lon;timestamp;P1;durP1;ratioP1;P2;durP2;ratioP2
15192;SDS011;7697;51.630;7.484;2023-06-14T00:01:18;3.83;;;3.20;;
15192;SDS011;7697;51.630;7.484;2023-06-14T00:06:22;3.38;;;2.80;;
15192;SDS011;7697;51.630;7.484;2023-06-14T00:11:24;3.22;;;2.92;;
15192;SDS011;7697;51.630;7.484;2023-06-14T00:16:28;3.78;;;2.67;;
15192;SDS011;7697;51.630;7.484;2023-06-14T00:21:30;3.25;;;2.95;;
15192;SDS011;7697;51.630;7.484;2023-06-14T00:26:32;3.72;;;2.88;;
15192;SDS011;7697;51.630;7.484;2023-06-14T00:31:35;3.80;;;2.70;;
15192;SDS011;7697;51.630;7.484;2023-06-14T00:36:37;3.17;;;2.75;;
15192;SDS011;7697;51.630;7.484;2023-06-14T00:41:39;2.90;;;2.58;;
15192;SDS011;7697;51.630;7.484;2023-06-14T00:46:42;4.03;;;2.80;;
15192;SDS011;7697;51.630;7.484;2023-06-14T00:51:44;3.97;;;2.60;;
15192;SDS011;7697;51.630;7.484;2023-06-14T00:56:46;2.97;;;2.55;;
15192;SDS011;7697;51.630;7.484;2023-06-14T01:01:49;3.05;;;2.60;;
15192;SDS011;7697;51.630;7.484;2023-06-14T01:06:53;4.25;;;2.80;;
15192;SDS011;7697;51.630;7.484;2023-06-14T01:12:11;5.68;;;2.65;;
15192;SDS011;7697;51.630;7.484;2023-06-14T01:17:22;3.03;;;2.40;;
15192;SDS011;7697;51.630;7.484;2023-06-14T01:22:27;2.55;;;2.35;;
15192;SDS011;7697;51.630;7.484;2023-06-14T01:27:31;4.18;;;2.55;;
15192;SDS011;7697;51.630;7.484;2023-06-14T01:32:33;3.45;;;2.40;;
15192;SDS011;7697;51.630;7.484;2023-06-14T01:37:35;5.55;;;2.60;;
15192;SDS011;7697;51.630;7.484;2023-06-14T01:42:39;2.50;;;2.30;;
15192;SDS011;7697;51.630;7.484;2023-06-14T01:47:41;3.30;;;2.50;;
15192;SDS011;7697;51.630;7.484;2023-06-14T01:52:44;2.72;;;2.53;;
15192;SDS011;7697;51.630;7.484;2023-06-14T01:57:47;3.88;;;2.53;;
15192;SDS011;7697;51.630;7.484;2023-06-14T02:02:49;4.50;;;2.45;;
15192;SDS011;7697;51.630;7.484;2023-06-14T02:07:50;4.05;;;2.55;;
15192;SDS011;7697;51.630;7.484;2023-06-14T02:12:55;3.47;;;2.22;;
15192;SDS011;7697;51.630;7.484;2023-06-14T02:17:56;2.42;;;2.22;;
15192;SDS011;7697;51.630;7.484;2023-06-14T02:23:00;3.42;;;2.42;;
15192;SDS011;7697;51.630;7.484;2023-06-14T02:28:03;3.35;;;2.08;;
15192;SDS011;7697;51.630;7.484;2023-06-14T02:33:05;2.75;;;2.30;;
15192;SDS011;7697;51.630;7.484;2023-06-14T02:38:07;2.50;;;2.30;;
15192;SDS011;7697;51.630;7.484;2023-06-14T02:43:10;2.55;;;2.30;;
15192;SDS011;7697;51.630;7.484;2023-06-14T02:48:12;3.03;;;2.25;;
15192;SDS011;7697;51.630;7.484;2023-06-14T02:53:13;3.83;;;2.20;;
15192;SDS011;7697;51.630;7.484;2023-06-14T02:58:17;2.95;;;2.03;;
15192;SDS011;7697;51.630;7.484;2023-06-14T03:03:19;3.40;;;2.30;;
15192;SDS011;7697;51.630;7.484;2023-06-14T03:08:21;4.25;;;2.78;;
15192;SDS011;7697;51.630;7.484;2023-06-14T03:13:28;2.20;;;2.00;;
15192;SDS011;7697;51.630;7.484;2023-06-14T03:18:32;2.80;;;2.15;;
15192;SDS011;7697;51.630;7.484;2023-06-14T03:23:35;3.65;;;2.00;;
15192;SDS011;7697;51.630;7.484;2023-06-14T03:28:39;2.55;;;1.98;;
15192;SDS011;7697;51.630;7.484;2023-06-14T03:33:40;2.75;;;2.20;;
15192;SDS011;7697;51.630;7.484;2023-06-14T03:38:42;3.92;;;2.30;;
15192;SDS011;7697;51.630;7.484;2023-06-14T03:43:45;2.28;;;2.08;;
15192;SDS011;7697;51.630;7.484;2023-06-14T03:48:48;3.95;;;2.40;;
15192;SDS011;7697;51.630;7.484;2023-06-14T03:53:49;4.18;;;2.30;;
15192;SDS011;7697;51.630;7.484;2023-06-14T03:58:53;2.72;;;2.28;;
15192;SDS011;7697;51.630;7.484;2023-06-14T04:03:55;2.75;;;2.38;;
15192;SDS011;7697;51.630;7.484;2023-06-14T04:08:58;2.85;;;2.40;;
15192;SDS011;7697;51.630;7.484;2023-06-14T04:14:05;5.13;;;2.15;;
15192;SDS011;7697;51.630;7.484;2023-06-14T04:19:07;2.95;;;2.50;;
15192;SDS011;7697;51.630;7.484;2023-06-14T04:24:08;2.92;;;2.58;;
15192;SDS011;7697;51.630;7.484;2023-06-14T04:29:14;5.25;;;2.50;;
15192;SDS011;7697;51.630;7.484;2023-06-14T04:34:19;3.22;;;2.67;;
15192;SDS011;7697;51.630;7.484;2023-06-14T04:39:22;2.75;;;2.50;;
15192;SDS011;7697;51.630;7.484;2023-06-14T04:44:27;2.95;;;2.65;;
15192;SDS011;7697;51.630;7.484;2023-06-14T04:49:31;3.33;;;2.30;;
15192;SDS011;7697;51.630;7.484;2023-06-14T04:54:34;5.57;;;2.50;;
15192;SDS011;7697;51.630;7.484;2023-06-14T04:59:38;2.60;;;2.35;;
15192;SDS011;7697;51.630;7.484;2023-06-14T05:04:40;2.97;;;2.55;;
15192;SDS011;7697;51.630;7.484;2023-06-14T05:09:42;8.15;;;2.65;;
15192;SDS011;7697;51.630;7.484;2023-06-14T05:14:45;3.45;;;2.35;;
15192;SDS011;7697;51.630;7.484;2023-06-14T05:19:47;4.88;;;2.45;;
15192;SDS011;7697;51.630;7.484;2023-06-14T05:24:49;4.32;;;3.22;;
15192;SDS011;7697;51.630;7.484;2023-06-14T05:29:52;2.95;;;2.50;;
15192;SDS011;7697;51.630;7.484;2023-06-14T05:34:55;3.05;;;2.53;;
15192;SDS011;7697;51.630;7.484;2023-06-14T05:39:57;2.40;;;2.20;;
15192;SDS011;7697;51.630;7.484;2023-06-14T05:45:01;3.50;;;2.70;;
15192;SDS011;7697;51.630;7.484;2023-06-14T05:50:02;2.90;;;2.60;;
15192;SDS011;7697;51.630;7.484;2023-06-14T05:55:05;3.30;;;2.72;;
15192;SDS011;7697;51.630;7.484;2023-06-14T06:00:09;3.53;;;2.38;;
15192;SDS011;7697;51.630;7.484;2023-06-14T06:05:14;2.75;;;2.10;;
15192;SDS011;7697;51.630;7.484;2023-06-14T06:10:17;4.38;;;2.90;;
15192;SDS011;7697;51.630;7.484;2023-06-14T06:15:20;3.83;;;2.20;;
15192;SDS011;7697;51.630;7.484;2023-06-14T06:20:22;4.00;;;2.28;;
15192;SDS011;7697;51.630;7.484;2023-06-14T06:25:28;5.75;;;2.05;;
15192;SDS011;7697;51.630;7.484;2023-06-14T06:30:33;4.28;;;2.47;;
15192;SDS011;7697;51.630;7.484;2023-06-14T06:35:36;4.35;;;2.45;;
15192;SDS011;7697;51.630;7.484;2023-06-14T06:40:37;3.22;;;2.35;;
15192;SDS011;7697;51.630;7.484;2023-06-14T06:45:40;5.28;;;2.40;;
15192;SDS011;7697;51.630;7.484;2023-06-14T06:50:42;5.13;;;2.38;;
15192;SDS011;7697;51.630;7.484;2023-06-14T06:55:44;6.25;;;2.38;;
15192;SDS011;7697;51.630;7.484;2023-06-14T07:00:47;3.20;;;2.45;;
15192;SDS011;7697;51.630;7.484;2023-06-14T07:05:49;3.47;;;2.08;;
15192;SDS011;7697;51.630;7.484;2023-06-14T07:10:51;3.88;;;2.25;;
15192;SDS011;7697;51.630;7.484;2023-06-14T07:15:57;3.95;;;2.20;;
15192;SDS011;7697;51.630;7.484;2023-06-14T07:21:00;3.03;;;2.35;;
15192;SDS011;7697;51.630;7.484;2023-06-14T07:26:01;3.17;;;2.40;;
15192;SDS011;7697;51.630;7.484;2023-06-14T07:31:04;2.10;;;1.90;;
15192;SDS011;7697;51.630;7.484;2023-06-14T07:36:06;2.10;;;1.70;;
15192;SDS011;7697;51.630;7.484;2023-06-14T07:41:08;3.38;;;2.03;;
15192;SDS011;7697;51.630;7.484;2023-06-14T07:46:12;3.97;;;2.58;;
15192;SDS011;7697;51.630;7.484;2023-06-14T07:51:14;2.50;;;1.83;;
15192;SDS011;7697;51.630;7.484;2023-06-14T07:56:17;2.53;;;1.70;;
15192;SDS011;7697;51.630;7.484;2023-06-14T08:01:20;1.70;;;1.60;;
15192;SDS011;7697;51.630;7.484;2023-06-14T08:06:24;1.60;;;1.50;;
15192;SDS011;7697;51.630;7.484;2023-06-14T08:11:26;2.95;;;1.60;;
15192;SDS011;7697;51.630;7.484;2023-06-14T08:16:29;1.58;;;1.48;;
15192;SDS011;7697;51.630;7.484;2023-06-14T08:21:31;2.22;;;1.70;;
15192;SDS011;7697;51.630;7.484;2023-06-14T08:26:33;1.40;;;1.25;;
15192;SDS011;7697;51.630;7.484;2023-06-14T08:31:38;1.42;;;1.33;;
15192;SDS011;7697;51.630;7.484;2023-06-14T08:36:39;2.67;;;1.70;;
15192;SDS011;7697;51.630;7.484;2023-06-14T08:41:42;1.70;;;1.30;;
15192;SDS011;7697;51.630;7.484;2023-06-14T08:46:48;1.40;;;1.30;;
15192;SDS011;7697;51.630;7.484;2023-06-14T08:51:53;1.30;;;1.20;;
15192;SDS011;7697;51.630;7.484;2023-06-14T08:56:59;1.30;;;1.20;;
15192;SDS011;7697;51.630;7.484;2023-06-14T09:02:02;1.75;;;1.58;;
15192;SDS011;7697;51.630;7.484;2023-06-14T09:07:05;2.00;;;1.30;;
15192;SDS011;7697;51.630;7.484;2023-06-14T09:12:08;1.65;;;1.30;;
15192;SDS011;7697;51.630;7.484;2023-06-14T09:17:14;1.83;;;1.30;;
15192;SDS011;7697;51.630;7.484;2023-06-14T09:22:16;1.23;;;1.13;;
15192;SDS011;7697;51.630;7.484;2023-06-14T09:27:18;1.30;;;1.20;;
15192;SDS011;7697;51.630;7.484;2023-06-14T09:32:21;1.42;;;1.20;;
15192;SDS011;7697;51.630;7.484;2023-06-14T09:37:27;1.70;;;1.30;;
15192;SDS011;7697;51.630;7.484;2023-06-14T09:42:30;2.45;;;1.48;;
15192;SDS011;7697;51.630;7.484;2023-06-14T09:47:37;3.92;;;1.58;;
15192;SDS011;7697;51.630;7.484;2023-06-14T09:52:40;2.40;;;1.70;;
15192;SDS011;7697;51.630;7.484;2023-06-14T09:57:45;1.88;;;1.60;;
15192;SDS011;7697;51.630;7.484;2023-06-14T10:02:53;1.85;;;1.38;;
15192;SDS011;7697;51.630;7.484;2023-06-14T10:08:03;2.22;;;1.30;;
15192;SDS011;7697;51.630;7.484;2023-06-14T10:13:09;2.00;;;1.50;;
15192;SDS011;7697;51.630;7.484;2023-06-14T10:18:17;3.28;;;1.50;;
15192;SDS011;7697;51.630;7.484;2023-06-14T10:23:25;2.45;;;1.48;;
15192;SDS011;7697;51.630;7.484;2023-06-14T10:28:30;2.17;;;1.30;;
15192;SDS011;7697;51.630;7.484;2023-06-14T10:33:34;7.10;;;1.50;;
15192;SDS011;7697;51.630;7.484;2023-06-14T10:38:36;2.83;;;1.42;;
15192;SDS011;7697;51.630;7.484;2023-06-14T10:43:39;1.40;;;1.20;;
15192;SDS011;7697;51.630;7.484;2023-06-14T10:48:42;2.38;;;1.40;;
15192;SDS011;7697;51.630;7.484;2023-06-14T10:53:44;2.17;;;1.60;;
15192;SDS011;7697;51.630;7.484;2023-06-14T10:58:46;2.35;;;1.60;;
15192;SDS011;7697;51.630;7.484;2023-06-14T11:03:51;2.15;;;1.50;;
15192;SDS011;7697;51.630;7.484;2023-06-14T11:09:03;1.60;;;1.50;;
15192;SDS011;7697;51.630;7.484;2023-06-14T11:14:23;2.13;;;1.60;;
15192;SDS011;7697;51.630;7.484;2023-06-14T11:19:26;3.20;;;1.70;;
15192;SDS011;7697;51.630;7.484;2023-06-14T11:24:29;1.77;;;1.63;;
15192;SDS011;7697;51.630;7.484;2023-06-14T11:29:30;2.47;;;1.60;;
15192;SDS011;7697;51.630;7.484;2023-06-14T11:34:33;2.50;;;1.65;;
15192;SDS011;7697;51.630;7.484;2023-06-14T11:39:35;1.95;;;1.73;;
15192;SDS011;7697;51.630;7.484;2023-06-14T11:44:37;1.70;;;1.50;;
15192;SDS011;7697;51.630;7.484;2023-06-14T11:49:40;1.92;;;1.70;;
15192;SDS011;7697;51.630;7.484;2023-06-14T11:54:43;1.70;;;1.60;;
15192;SDS011;7697;51.630;7.484;2023-06-14T11:59:45;1.83;;;1.73;;
15192;SDS011;7697;51.630;7.484;2023-06-14T12:04:49;1.63;;;1.52;;
15192;SDS011;7697;51.630;7.484;2023-06-14T12:10:03;2.42;;;2.00;;
15192;SDS011;7697;51.630;7.484;2023-06-14T12:15:08;2.92;;;1.83;;
15192;SDS011;7697;51.630;7.484;2023-06-14T12:20:14;2.13;;;1.70;;
15192;SDS011;7697;51.630;7.484;2023-06-14T12:25:23;2.80;;;1.80;;
15192;SDS011;7697;51.630;7.484;2023-06-14T12:30:27;2.25;;;1.73;;
15192;SDS011;7697;51.630;7.484;2023-06-14T12:35:31;2.22;;;1.70;;
15192;SDS011;7697;51.630;7.484;2023-06-14T12:40:33;2.33;;;1.70;;
15192;SDS011;7697;51.630;7.484;2023-06-14T12:45:37;2.10;;;1.90;;
15192;SDS011;7697;51.630;7.484;2023-06-14T12:50:41;3.13;;;1.98;;
15192;SDS011;7697;51.630;7.484;2023-06-14T12:55:43;3.08;;;2.00;;
15192;SDS011;7697;51.630;7.484;2023-06-14T13:00:45;2.10;;;1.90;;
15192;SDS011;7697;51.630;7.484;2023-06-14T13:05:48;5.47;;;2.47;;
15192;SDS011;7697;51.630;7.484;2023-06-14T13:10:50;2.10;;;1.90;;
15192;SDS011;7697;51.630;7.484;2023-06-14T13:15:52;2.30;;;1.75;;
15192;SDS011;7697;51.630;7.484;2023-06-14T13:20:55;3.28;;;2.15;;
15192;SDS011;7697;51.630;7.484;2023-06-14T13:25:57;2.25;;;1.88;;
15192;SDS011;7697;51.630;7.484;2023-06-14T13:30:59;1.77;;;1.63;;
15192;SDS011;7697;51.630;7.484;2023-06-14T13:36:02;2.55;;;1.80;;
15192;SDS011;7697;51.630;7.484;2023-06-14T13:41:05;3.20;;;1.90;;
15192;SDS011;7697;51.630;7.484;2023-06-14T13:46:06;2.67;;;1.77;;
15192;SDS011;7697;51.630;7.484;2023-06-14T13:51:09;2.40;;;2.00;;
15192;SDS011;7697;51.630;7.484;2023-06-14T13:56:11;1.98;;;1.88;;
15192;SDS011;7697;51.630;7.484;2023-06-14T14:01:13;3.33;;;1.90;;
15192;SDS011;7697;51.630;7.484;2023-06-14T14:06:17;2.17;;;1.63;;
15192;SDS011;7697;51.630;7.484;2023-06-14T14:11:18;5.20;;;2.20;;
15192;SDS011;7697;51.630;7.484;2023-06-14T14:16:20;2.40;;;1.90;;
15192;SDS011;7697;51.630;7.484;2023-06-14T14:21:24;2.95;;;1.90;;
15192;SDS011;7697;51.630;7.484;2023-06-14T14:26:26;2.13;;;1.90;;
15192;SDS011;7697;51.630;7.484;2023-06-14T14:31:28;2.50;;;1.70;;
15192;SDS011;7697;51.630;7.484;2023-06-14T14:36:31;4.60;;;2.03;;
15192;SDS011;7697;51.630;7.484;2023-06-14T14:41:36;3.60;;;1.85;;
15192;SDS011;7697;51.630;7.484;2023-06-14T14:46:40;2.15;;;1.95;;
15192;SDS011;7697;51.630;7.484;2023-06-14T14:51:43;2.47;;;2.10;;
15192;SDS011;7697;51.630;7.484;2023-06-14T14:56:45;2.70;;;2.00;;
15192;SDS011;7697;51.630;7.484;2023-06-14T15:01:47;3.38;;;2.00;;
15192;SDS011;7697;51.630;7.484;2023-06-14T15:06:50;2.20;;;1.85;;
15192;SDS011;7697;51.630;7.484;2023-06-14T15:11:52;4.30;;;2.10;;
15192;SDS011;7697;51.630;7.484;2023-06-14T15:16:53;4.03;;;2.13;;
15192;SDS011;7697;51.630;7.484;2023-06-14T15:21:56;3.72;;;1.92;;
15192;SDS011;7697;51.630;7.484;2023-06-14T15:26:59;4.13;;;2.10;;
15192;SDS011;7697;51.630;7.484;2023-06-14T15:32:00;2.10;;;1.90;;
15192;SDS011;7697;51.630;7.484;2023-06-14T15:37:04;3.25;;;1.90;;
15192;SDS011;7697;51.630;7.484;2023-06-14T15:42:07;2.92;;;1.90;;
15192;SDS011;7697;51.630;7.484;2023-06-14T15:47:08;2.10;;;1.85;;
15192;SDS011;7697;51.630;7.484;2023-06-14T15:52:12;2.00;;;1.90;;
15192;SDS011;7697;51.630;7.484;2023-06-14T15:57:13;2.67;;;2.17;;
15192;SDS011;7697;51.630;7.484;2023-06-14T16:02:15;2.25;;;2.05;;
15192;SDS011;7697;51.630;7.484;2023-06-14T16:07:18;2.42;;;2.22;;
15192;SDS011;7697;51.630;7.484;2023-06-14T16:12:20;2.10;;;1.90;;
15192;SDS011;7697;51.630;7.484;2023-06-14T16:17:23;1.98;;;1.83;;
15192;SDS011;7697;51.630;7.484;2023-06-14T16:22:27;2.45;;;1.85;;
15192;SDS011;7697;51.630;7.484;2023-06-14T16:27:28;2.80;;;1.90;;
15192;SDS011;7697;51.630;7.484;2023-06-14T16:32:31;2.65;;;2.20;;
15192;SDS011;7697;51.630;7.484;2023-06-14T16:37:34;2.72;;;2.00;;
15192;SDS011;7697;51.630;7.484;2023-06-14T16:42:36;2.00;;;1.80;;
15192;SDS011;7697;51.630;7.484;2023-06-14T16:47:38;2.50;;;2.30;;
15192;SDS011;7697;51.630;7.484;2023-06-14T16:52:41;2.20;;;1.90;;
15192;SDS011;7697;51.630;7.484;2023-06-14T16:57:43;3.40;;;2.20;;
15192;SDS011;7697;51.630;7.484;2023-06-14T17:02:45;3.95;;;2.28;;
15192;SDS011;7697;51.630;7.484;2023-06-14T17:07:49;2.20;;;2.00;;
15192;SDS011;7697;51.630;7.484;2023-06-14T17:12:51;3.55;;;1.85;;
15192;SDS011;7697;51.630;7.484;2023-06-14T17:17:53;2.15;;;1.95;;
15192;SDS011;7697;51.630;7.484;2023-06-14T17:22:56;3.38;;;1.80;;
15192;SDS011;7697;51.630;7.484;2023-06-14T17:27:58;2.05;;;1.85;;
15192;SDS011;7697;51.630;7.484;2023-06-14T17:33:00;3.65;;;1.80;;
15192;SDS011;7697;51.630;7.484;2023-06-14T17:38:03;2.00;;;1.80;;
15192;SDS011;7697;51.630;7.484;2023-06-14T17:43:05;2.03;;;1.67;;
15192;SDS011;7697;51.630;7.484;2023-06-14T17:48:07;2.00;;;1.60;;
15192;SDS011;7697;51.630;7.484;2023-06-14T17:53:11;1.88;;;1.77;;
15192;SDS011;7697;51.630;7.484;2023-06-14T17:58:12;2.05;;;1.75;;
15192;SDS011;7697;51.630;7.484;2023-06-14T18:03:14;1.70;;;1.60;;
15192;SDS011;7697;51.630;7.484;2023-06-14T18:08:18;2.53;;;1.85;;
15192;SDS011;7697;51.630;7.484;2023-06-14T18:13:19;1.85;;;1.65;;
15192;SDS011;7697;51.630;7.484;2023-06-14T18:18:21;1.80;;;1.70;;
15192;SDS011;7697;51.630;7.484;2023-06-14T18:23:24;2.38;;;1.63;;
15192;SDS011;7697;51.630;7.484;2023-06-14T18:28:26;1.80;;;1.70;;
15192;SDS011;7697;51.630;7.484;2023-06-14T18:33:28;2.72;;;1.60;;
15192;SDS011;7697;51.630;7.484;2023-06-14T18:38:31;1.70;;;1.60;;
15192;SDS011;7697;51.630;7.484;2023-06-14T18:43:33;2.22;;;1.50;;
15192;SDS011;7697;51.630;7.484;2023-06-14T18:48:35;1.65;;;1.55;;
15192;SDS011;7697;51.630;7.484;2023-06-14T18:53:38;1.83;;;1.50;;
15192;SDS011;7697;51.630;7.484;2023-06-14T18:58:41;1.63;;;1.52;;
15192;SDS011;7697;51.630;7.484;2023-06-14T19:03:43;1.95;;;1.58;;
15192;SDS011;7697;51.630;7.484;2023-06-14T19:08:46;1.50;;;1.40;;
15192;SDS011;7697;51.630;7.484;2023-06-14T19:13:48;1.92;;;1.75;;
15192;SDS011;7697;51.630;7.484;2023-06-14T19:18:50;1.73;;;1.60;;
15192;SDS011;7697;51.630;7.484;2023-06-14T19:23:53;1.48;;;1.38;;
15192;SDS011;7697;51.630;7.484;2023-06-14T19:28:56;4.40;;;1.75;;
15192;SDS011;7697;51.630;7.484;2023-06-14T19:33:58;1.67;;;1.58;;
15192;SDS011;7697;51.630;7.484;2023-06-14T19:39:02;1.55;;;1.45;;
15192;SDS011;7697;51.630;7.484;2023-06-14T19:44:03;2.78;;;1.70;;
15192;SDS011;7697;51.630;7.484;2023-06-14T19:49:06;1.67;;;1.58;;
15192;SDS011;7697;51.630;7.484;2023-06-14T19:54:09;1.67;;;1.58;;
15192;SDS011;7697;51.630;7.484;2023-06-14T19:59:11;1.48;;;1.38;;
15192;SDS011;7697;51.630;7.484;2023-06-14T20:04:13;2.60;;;1.92;;
15192;SDS011;7697;51.630;7.484;2023-06-14T20:09:16;1.80;;;1.70;;
15192;SDS011;7697;51.630;7.484;2023-06-14T20:14:19;1.50;;;1.40;;
15192;SDS011;7697;51.630;7.484;2023-06-14T20:19:21;1.67;;;1.58;;
15192;SDS011;7697;51.630;7.484;2023-06-14T20:24:24;2.30;;;1.70;;
15192;SDS011;7697;51.630;7.484;2023-06-14T20:29:26;1.90;;;1.75;;
15192;SDS011;7697;51.630;7.484;2023-06-14T20:34:28;1.77;;;1.67;;
15192;SDS011;7697;51.630;7.484;2023-06-14T20:39:31;1.95;;;1.70;;
15192;SDS011;7697;51.630;7.484;2023-06-14T20:44:33;2.15;;;1.90;;
15192;SDS011;7697;51.630;7.484;2023-06-14T20:49:40;2.33;;;2.13;;
15192;SDS011;7697;51.630;7.484;2023-06-14T20:54:44;2.15;;;1.95;;
15192;SDS011;7697;51.630;7.484;2023-06-14T20:59:46;2.20;;;2.00;;
15192;SDS011;7697;51.630;7.484;2023-06-14T21:04:47;2.03;;;1.83;;
15192;SDS011;7697;51.630;7.484;2023-06-14T21:09:51;2.78;;;2.00;;
15192;SDS011;7697;51.630;7.484;2023-06-14T21:14:53;2.70;;;2.05;;
15192;SDS011;7697;51.630;7.484;2023-06-14T21:19:55;2.10;;;1.90;;
15192;SDS011;7697;51.630;7.484;2023-06-14T21:24:59;2.42;;;2.08;;
15192;SDS011;7697;51.630;7.484;2023-06-14T21:30:01;1.98;;;1.88;;
15192;SDS011;7697;51.630;7.484;2023-06-14T21:35:04;2.05;;;1.90;;
15192;SDS011;7697;51.630;7.484;2023-06-14T21:40:09;2.15;;;1.95;;
15192;SDS011;7697;51.630;7.484;2023-06-14T21:45:11;3.03;;;2.17;;
15192;SDS011;7697;51.630;7.484;2023-06-14T21:50:13;2.65;;;2.10;;
15192;SDS011;7697;51.630;7.484;2023-06-14T21:55:17;2.30;;;2.05;;
15192;SDS011;7697;51.630;7.484;2023-06-14T22:00:23;3.50;;;2.10;;
15192;SDS011;7697;51.630;7.484;2023-06-14T22:05:25;2.85;;;1.95;;
15192;SDS011;7697;51.630;7.484;2023-06-14T22:10:28;2.90;;;2.00;;
15192;SDS011;7697;51.630;7.484;2023-06-14T22:15:32;2.35;;;2.08;;
15192;SDS011;7697;51.630;7.484;2023-06-14T22:20:34;2.30;;;2.10;;
15192;SDS011;7697;51.630;7.484;2023-06-14T22:25:39;2.90;;;2.28;;
15192;SDS011;7697;51.630;7.484;2023-06-14T22:30:40;4.15;;;2.50;;
15192;SDS011;7697;51.630;7.484;2023-06-14T22:35:44;2.70;;;2.50;;
15192;SDS011;7697;51.630;7.484;2023-06-14T22:40:48;2.50;;;2.30;;
15192;SDS011;7697;51.630;7.484;2023-06-14T22:45:50;3.17;;;2.15;;
15192;SDS011;7697;51.630;7.484;2023-06-14T22:50:55;4.32;;;2.20;;
15192;SDS011;7697;51.630;7.484;2023-06-14T22:55:58;3.20;;;2.50;;
15192;SDS011;7697;51.630;7.484;2023-06-14T23:01:00;2.67;;;2.10;;
15192;SDS011;7697;51.630;7.484;2023-06-14T23:06:02;3.35;;;2.40;;
15192;SDS011;7697;51.630;7.484;2023-06-14T23:11:08;3.60;;;2.30;;
15192;SDS011;7697;51.630;7.484;2023-06-14T23:16:11;3.05;;;2.60;;
15192;SDS011;7697;51.630;7.484;2023-06-14T23:21:14;2.40;;;2.15;;
15192;SDS011;7697;51.630;7.484;2023-06-14T23:26:18;2.67;;;2.15;;
15192;SDS011;7697;51.630;7.484;2023-06-14T23:31:24;2.45;;;2.25;;
15192;SDS011;7697;51.630;7.484;2023-06-14T23:36:27;2.10;;;1.90;;
15192;SDS011;7697;51.630;7.484;2023-06-14T23:41:32;2.13;;;1.98;;
15192;SDS011;7697;51.630;7.484;2023-06-14T23:46:35;2.35;;;2.15;;
15192;SDS011;7697;51.630;7.484;2023-06-14T23:51:37;2.38;;;2.17;;
15192;SDS011;7697;51.630;7.484;2023-06-14T23:56:42;2.72;;;2.30;;
